sensor_id;sensor_type;location;lat;lon;timestamp;P1;durP1;ratioP1;P2;durP2;ratioP2
14052;SDS011;7101;51.600;7.310;2023-12-14T00:01:39;7.90;;;4.93;;
14052;SDS011;7101;51.600;7.310;2023-12-14T00:04:06;8.80;;;5.13;;
14052;SDS011;7101;51.600;7.310;2023-12-14T00:06:34;7.28;;;4.63;;
14052;SDS011;7101;51.600;7.310;2023-12-14T00:09:01;10.77;;;5.80;;
14052;SDS011;7101;51.600;7.310;2023-12-14T00:11:28;7.18;;;4.65;;
14052;SDS011;7101;51.600;7.310;2023-12-14T00:13:55;6.85;;;4.35;;
14052;SDS011;7101;51.600;7.310;2023-12-14T00:16:21;6.57;;;4.18;;
14052;SDS011;7101;51.600;7.310;2023-12-14T00:18:48;6.95;;;4.40;;
14052;SDS011;7101;51.600;7.310;2023-12-14T00:21:15;6.85;;;4.43;;
14052;SDS011;7101;51.600;7.310;2023-12-14T00:23:43;6.43;;;4.05;;
14052;SDS011;7101;51.600;7.310;2023-12-14T00:26:10;5.22;;;3.55;;
14052;SDS011;7101;51.600;7.310;2023-12-14T00:28:37;6.22;;;3.42;;
14052;SDS011;7101;51.600;7.310;2023-12-14T00:31:04;4.78;;;3.30;;
14052;SDS011;7101;51.600;7.310;2023-12-14T00:33:31;4.93;;;3.28;;
14052;SDS011;7101;51.600;7.310;2023-12-14T00:35:58;4.65;;;2.97;;
14052;SDS011;7101;51.600;7.310;2023-12-14T00:38:25;4.25;;;2.65;;
14052;SDS011;7101;51.600;7.310;2023-12-14T00:40:53;4.00;;;2.63;;
14052;SDS011;7101;51.600;7.310;2023-12-14T00:43:20;3.85;;;3.05;;
14052;SDS011;7101;51.600;7.310;2023-12-14T00:45:46;4.45;;;2.88;;
14052;SDS011;7101;51.600;7.310;2023-12-14T00:48:13;5.70;;;3.33;;
14052;SDS011;7101;51.600;7.310;2023-12-14T00:50:40;4.85;;;3.30;;
14052;SDS011;7101;51.600;7.310;2023-12-14T00:53:07;4.28;;;2.78;;
14052;SDS011;7101;51.600;7.310;2023-12-14T00:55:33;4.13;;;2.90;;
14052;SDS011;7101;51.600;7.310;2023-12-14T00:58:01;4.70;;;3.00;;
14052;SDS011;7101;51.600;7.310;2023-12-14T01:00:28;5.80;;;3.22;;
14052;SDS011;7101;51.600;7.310;2023-12-14T01:02:56;5.43;;;3.58;;
14052;SDS011;7101;51.600;7.310;2023-12-14T01:05:23;4.82;;;3.22;;
14052;SDS011;7101;51.600;7.310;2023-12-14T01:07:49;4.60;;;3.17;;
14052;SDS011;7101;51.600;7.310;2023-12-14T01:10:16;5.85;;;3.35;;
14052;SDS011;7101;51.600;7.310;2023-12-14T01:12:43;5.88;;;3.70;;
14052;SDS011;7101;51.600;7.310;2023-12-14T01:15:11;5.88;;;3.38;;
14052;SDS011;7101;51.600;7.310;2023-12-14T01:17:38;6.25;;;4.15;;
14052;SDS011;7101;51.600;7.310;2023-12-14T01:20:05;9.95;;;4.03;;
14052;SDS011;7101;51.600;7.310;2023-12-14T01:22:33;6.30;;;3.92;;
14052;SDS011;7101;51.600;7.310;2023-12-14T01:24:59;6.07;;;3.90;;
14052;SDS011;7101;51.600;7.310;2023-12-14T01:27:26;6.20;;;3.92;;
14052;SDS011;7101;51.600;7.310;2023-12-14T01:29:53;6.95;;;3.85;;
14052;SDS011;7101;51.600;7.310;2023-12-14T01:32:21;9.85;;;3.83;;
14052;SDS011;7101;51.600;7.310;2023-12-14T01:34:48;5.82;;;3.55;;
14052;SDS011;7101;51.600;7.310;2023-12-14T01:37:15;6.47;;;4.18;;
14052;SDS011;7101;51.600;7.310;2023-12-14T01:39:41;6.95;;;4.25;;
14052;SDS011;7101;51.600;7.310;2023-12-14T01:42:08;7.60;;;4.30;;
14052;SDS011;7101;51.600;7.310;2023-12-14T01:44:35;6.10;;;3.97;;
14052;SDS011;7101;51.600;7.310;2023-12-14T01:47:02;7.82;;;4.50;;
14052;SDS011;7101;51.600;7.310;2023-12-14T01:49:30;9.50;;;5.38;;
14052;SDS011;7101;51.600;7.310;2023-12-14T01:51:57;8.07;;;4.65;;
14052;SDS011;7101;51.600;7.310;2023-12-14T01:54:24;12.55;;;5.78;;
14052;SDS011;7101;51.600;7.310;2023-12-14T01:56:50;12.25;;;5.88;;
14052;SDS011;7101;51.600;7.310;2023-12-14T01:59:19;9.18;;;5.50;;
14052;SDS011;7101;51.600;7.310;2023-12-14T02:01:46;10.15;;;5.97;;
14052;SDS011;7101;51.600;7.310;2023-12-14T02:04:18;11.57;;;6.05;;
14052;SDS011;7101;51.600;7.310;2023-12-14T02:06:46;9.50;;;5.32;;
14052;SDS011;7101;51.600;7.310;2023-12-14T02:09:13;9.18;;;5.90;;
14052;SDS011;7101;51.600;7.310;2023-12-14T02:11:40;11.00;;;5.47;;
14052;SDS011;7101;51.600;7.310;2023-12-14T02:14:08;11.55;;;6.18;;
14052;SDS011;7101;51.600;7.310;2023-12-14T02:16:35;12.68;;;5.60;;
14052;SDS011;7101;51.600;7.310;2023-12-14T02:19:03;10.30;;;5.78;;
14052;SDS011;7101;51.600;7.310;2023-12-14T02:21:30;10.40;;;5.25;;
14052;SDS011;7101;51.600;7.310;2023-12-14T02:23:58;9.95;;;5.53;;
14052;SDS011;7101;51.600;7.310;2023-12-14T02:26:25;9.70;;;5.25;;
14052;SDS011;7101;51.600;7.310;2023-12-14T02:28:52;9.35;;;5.03;;
14052;SDS011;7101;51.600;7.310;2023-12-14T02:31:19;11.75;;;5.20;;
14052;SDS011;7101;51.600;7.310;2023-12-14T02:33:46;9.38;;;4.90;;
14052;SDS011;7101;51.600;7.310;2023-12-14T02:36:12;10.55;;;5.10;;
14052;SDS011;7101;51.600;7.310;2023-12-14T02:38:39;11.50;;;5.50;;
14052;SDS011;7101;51.600;7.310;2023-12-14T02:41:07;9.25;;;5.10;;
14052;SDS011;7101;51.600;7.310;2023-12-14T02:43:34;10.25;;;5.43;;
14052;SDS011;7101;51.600;7.310;2023-12-14T02:46:00;10.30;;;5.15;;
14052;SDS011;7101;51.600;7.310;2023-12-14T02:48:27;10.68;;;5.20;;
14052;SDS011;7101;51.600;7.310;2023-12-14T02:50:55;9.23;;;5.85;;
14052;SDS011;7101;51.600;7.310;2023-12-14T02:53:21;13.02;;;5.47;;
14052;SDS011;7101;51.600;7.310;2023-12-14T02:55:48;12.75;;;6.03;;
14052;SDS011;7101;51.600;7.310;2023-12-14T02:58:16;11.00;;;6.03;;
14052;SDS011;7101;51.600;7.310;2023-12-14T03:00:44;10.50;;;5.88;;
14052;SDS011;7101;51.600;7.310;2023-12-14T03:03:11;9.93;;;5.53;;
14052;SDS011;7101;51.600;7.310;2023-12-14T03:05:38;11.60;;;6.47;;
14052;SDS011;7101;51.600;7.310;2023-12-14T03:08:04;9.65;;;5.47;;
14052;SDS011;7101;51.600;7.310;2023-12-14T03:10:31;9.05;;;5.38;;
14052;SDS011;7101;51.600;7.310;2023-12-14T03:12:58;11.52;;;5.72;;
14052;SDS011;7101;51.600;7.310;2023-12-14T03:15:26;12.52;;;6.18;;
14052;SDS011;7101;51.600;7.310;2023-12-14T03:17:52;9.80;;;5.53;;
14052;SDS011;7101;51.600;7.310;2023-12-14T03:20:20;12.55;;;6.28;;
14052;SDS011;7101;51.600;7.310;2023-12-14T03:22:46;11.30;;;6.32;;
14052;SDS011;7101;51.600;7.310;2023-12-14T03:25:13;10.73;;;5.88;;
14052;SDS011;7101;51.600;7.310;2023-12-14T03:27:40;10.93;;;6.18;;
14052;SDS011;7101;51.600;7.310;2023-12-14T03:30:07;11.52;;;6.05;;
14052;SDS011;7101;51.600;7.310;2023-12-14T03:32:36;11.63;;;7.05;;
14052;SDS011;7101;51.600;7.310;2023-12-14T03:35:03;11.38;;;6.05;;
14052;SDS011;7101;51.600;7.310;2023-12-14T03:37:31;13.50;;;7.22;;
14052;SDS011;7101;51.600;7.310;2023-12-14T03:39:58;12.90;;;6.75;;
14052;SDS011;7101;51.600;7.310;2023-12-14T03:42:24;15.32;;;6.95;;
14052;SDS011;7101;51.600;7.310;2023-12-14T03:44:51;14.57;;;7.82;;
14052;SDS011;7101;51.600;7.310;2023-12-14T03:47:18;19.08;;;7.15;;
14052;SDS011;7101;51.600;7.310;2023-12-14T03:49:46;13.73;;;6.88;;
14052;SDS011;7101;51.600;7.310;2023-12-14T03:52:14;10.07;;;6.10;;
14052;SDS011;7101;51.600;7.310;2023-12-14T03:54:41;10.82;;;6.00;;
14052;SDS011;7101;51.600;7.310;2023-12-14T03:57:08;12.73;;;6.63;;
14052;SDS011;7101;51.600;7.310;2023-12-14T03:59:38;10.13;;;5.57;;
14052;SDS011;7101;51.600;7.310;2023-12-14T04:02:05;9.35;;;5.38;;
14052;SDS011;7101;51.600;7.310;2023-12-14T04:04:32;10.57;;;5.35;;
14052;SDS011;7101;51.600;7.310;2023-12-14T04:07:00;8.50;;;5.45;;
14052;SDS011;7101;51.600;7.310;2023-12-14T04:09:26;9.77;;;5.22;;
14052;SDS011;7101;51.600;7.310;2023-12-14T04:11:53;9.13;;;5.10;;
14052;SDS011;7101;51.600;7.310;2023-12-14T04:14:21;8.43;;;4.75;;
14052;SDS011;7101;51.600;7.310;2023-12-14T04:16:48;9.75;;;5.47;;
14052;SDS011;7101;51.600;7.310;2023-12-14T04:19:15;10.38;;;5.57;;
14052;SDS011;7101;51.600;7.310;2023-12-14T04:21:41;11.57;;;5.25;;
14052;SDS011;7101;51.600;7.310;2023-12-14T04:24:09;9.73;;;5.50;;
14052;SDS011;7101;51.600;7.310;2023-12-14T04:26:37;9.13;;;5.32;;
14052;SDS011;7101;51.600;7.310;2023-12-14T04:29:05;10.40;;;5.68;;
14052;SDS011;7101;51.600;7.310;2023-12-14T04:31:32;7.85;;;4.50;;
14052;SDS011;7101;51.600;7.310;2023-12-14T04:34:00;8.68;;;4.57;;
14052;SDS011;7101;51.600;7.310;2023-12-14T04:36:27;7.18;;;4.13;;
14052;SDS011;7101;51.600;7.310;2023-12-14T04:38:54;8.88;;;4.13;;
14052;SDS011;7101;51.600;7.310;2023-12-14T04:41:22;9.82;;;5.20;;
14052;SDS011;7101;51.600;7.310;2023-12-14T04:43:48;7.20;;;4.05;;
14052;SDS011;7101;51.600;7.310;2023-12-14T04:46:15;9.10;;;4.85;;
14052;SDS011;7101;51.600;7.310;2023-12-14T04:48:42;6.93;;;4.85;;
14052;SDS011;7101;51.600;7.310;2023-12-14T04:51:10;6.25;;;4.20;;
14052;SDS011;7101;51.600;7.310;2023-12-14T04:53:38;7.53;;;4.53;;
14052;SDS011;7101;51.600;7.310;2023-12-14T04:56:05;9.02;;;4.57;;
14052;SDS011;7101;51.600;7.310;2023-12-14T04:58:37;8.55;;;4.18;;
14052;SDS011;7101;51.600;7.310;2023-12-14T05:01:04;7.45;;;4.90;;
14052;SDS011;7101;51.600;7.310;2023-12-14T05:03:31;9.38;;;5.10;;
14052;SDS011;7101;51.600;7.310;2023-12-14T05:05:59;7.72;;;4.85;;
14052;SDS011;7101;51.600;7.310;2023-12-14T05:08:25;7.90;;;4.82;;
14052;SDS011;7101;51.600;7.310;2023-12-14T05:10:52;10.70;;;5.65;;
14052;SDS011;7101;51.600;7.310;2023-12-14T05:13:19;8.85;;;5.50;;
14052;SDS011;7101;51.600;7.310;2023-12-14T05:15:47;9.43;;;5.22;;
14052;SDS011;7101;51.600;7.310;2023-12-14T05:18:14;10.25;;;5.30;;
14052;SDS011;7101;51.600;7.310;2023-12-14T05:20:41;11.75;;;5.72;;
14052;SDS011;7101;51.600;7.310;2023-12-14T05:23:08;11.93;;;5.65;;
14052;SDS011;7101;51.600;7.310;2023-12-14T05:25:34;14.82;;;5.90;;
14052;SDS011;7101;51.600;7.310;2023-12-14T05:28:01;10.27;;;5.55;;
14052;SDS011;7101;51.600;7.310;2023-12-14T05:30:28;12.52;;;6.65;;
14052;SDS011;7101;51.600;7.310;2023-12-14T05:32:56;13.02;;;5.53;;
14052;SDS011;7101;51.600;7.310;2023-12-14T05:35:23;10.13;;;5.40;;
14052;SDS011;7101;51.600;7.310;2023-12-14T05:37:50;15.43;;;6.35;;
14052;SDS011;7101;51.600;7.310;2023-12-14T05:40:17;10.70;;;5.55;;
14052;SDS011;7101;51.600;7.310;2023-12-14T05:42:44;10.77;;;6.57;;
14052;SDS011;7101;51.600;7.310;2023-12-14T05:45:12;9.77;;;5.63;;
14052;SDS011;7101;51.600;7.310;2023-12-14T05:47:38;14.05;;;6.30;;
14052;SDS011;7101;51.600;7.310;2023-12-14T05:50:08;11.95;;;5.53;;
14052;SDS011;7101;51.600;7.310;2023-12-14T05:52:35;10.80;;;5.65;;
14052;SDS011;7101;51.600;7.310;2023-12-14T05:55:02;11.15;;;5.45;;
14052;SDS011;7101;51.600;7.310;2023-12-14T05:57:29;9.15;;;5.90;;
14052;SDS011;7101;51.600;7.310;2023-12-14T05:59:56;8.75;;;5.25;;
14052;SDS011;7101;51.600;7.310;2023-12-14T06:02:23;11.45;;;5.75;;
14052;SDS011;7101;51.600;7.310;2023-12-14T06:04:50;10.45;;;5.55;;
14052;SDS011;7101;51.600;7.310;2023-12-14T06:07:18;9.90;;;5.55;;
14052;SDS011;7101;51.600;7.310;2023-12-14T06:09:44;9.65;;;5.35;;
14052;SDS011;7101;51.600;7.310;2023-12-14T06:12:11;8.32;;;5.38;;
14052;SDS011;7101;51.600;7.310;2023-12-14T06:14:39;9.15;;;5.30;;
14052;SDS011;7101;51.600;7.310;2023-12-14T06:17:05;9.38;;;5.07;;
14052;SDS011;7101;51.600;7.310;2023-12-14T06:19:32;9.80;;;5.28;;
14052;SDS011;7101;51.600;7.310;2023-12-14T06:21:59;7.53;;;4.70;;
14052;SDS011;7101;51.600;7.310;2023-12-14T06:24:27;9.27;;;5.47;;
14052;SDS011;7101;51.600;7.310;2023-12-14T06:26:54;10.00;;;5.57;;
14052;SDS011;7101;51.600;7.310;2023-12-14T06:29:21;8.45;;;5.03;;
14052;SDS011;7101;51.600;7.310;2023-12-14T06:31:47;10.13;;;4.80;;
14052;SDS011;7101;51.600;7.310;2023-12-14T06:34:14;7.60;;;4.78;;
14052;SDS011;7101;51.600;7.310;2023-12-14T06:36:42;9.70;;;4.82;;
14052;SDS011;7101;51.600;7.310;2023-12-14T06:39:09;10.35;;;5.13;;
14052;SDS011;7101;51.600;7.310;2023-12-14T06:41:38;11.02;;;5.32;;
14052;SDS011;7101;51.600;7.310;2023-12-14T06:44:04;11.18;;;5.85;;
14052;SDS011;7101;51.600;7.310;2023-12-14T06:46:34;10.10;;;5.65;;
14052;SDS011;7101;51.600;7.310;2023-12-14T06:49:00;9.65;;;5.20;;
14052;SDS011;7101;51.600;7.310;2023-12-14T06:51:27;10.10;;;5.60;;
14052;SDS011;7101;51.600;7.310;2023-12-14T06:53:54;9.68;;;6.18;;
14052;SDS011;7101;51.600;7.310;2023-12-14T06:56:21;14.38;;;7.38;;
14052;SDS011;7101;51.600;7.310;2023-12-14T06:58:49;12.45;;;6.55;;
14052;SDS011;7101;51.600;7.310;2023-12-14T07:01:16;7.95;;;5.55;;
14052;SDS011;7101;51.600;7.310;2023-12-14T07:03:43;12.23;;;6.15;;
14052;SDS011;7101;51.600;7.310;2023-12-14T07:06:11;10.18;;;5.53;;
14052;SDS011;7101;51.600;7.310;2023-12-14T07:08:39;10.10;;;6.10;;
14052;SDS011;7101;51.600;7.310;2023-12-14T07:11:06;13.05;;;6.85;;
14052;SDS011;7101;51.600;7.310;2023-12-14T07:13:33;12.75;;;6.20;;
14052;SDS011;7101;51.600;7.310;2023-12-14T07:16:04;11.48;;;6.35;;
14052;SDS011;7101;51.600;7.310;2023-12-14T07:18:33;10.05;;;5.57;;
14052;SDS011;7101;51.600;7.310;2023-12-14T07:21:00;9.35;;;5.50;;
14052;SDS011;7101;51.600;7.310;2023-12-14T07:23:27;12.55;;;6.47;;
14052;SDS011;7101;51.600;7.310;2023-12-14T07:25:53;12.13;;;6.03;;
14052;SDS011;7101;51.600;7.310;2023-12-14T07:28:21;10.55;;;6.07;;
14052;SDS011;7101;51.600;7.310;2023-12-14T07:30:48;10.75;;;5.80;;
14052;SDS011;7101;51.600;7.310;2023-12-14T07:33:16;11.65;;;6.30;;
14052;SDS011;7101;51.600;7.310;2023-12-14T07:35:43;10.27;;;5.72;;
14052;SDS011;7101;51.600;7.310;2023-12-14T07:38:10;11.65;;;5.93;;
14052;SDS011;7101;51.600;7.310;2023-12-14T07:40:37;10.48;;;5.38;;
14052;SDS011;7101;51.600;7.310;2023-12-14T07:43:05;11.32;;;6.05;;
14052;SDS011;7101;51.600;7.310;2023-12-14T07:45:32;9.73;;;5.50;;
14052;SDS011;7101;51.600;7.310;2023-12-14T07:47:59;10.38;;;6.40;;
14052;SDS011;7101;51.600;7.310;2023-12-14T07:50:27;11.43;;;5.93;;
14052;SDS011;7101;51.600;7.310;2023-12-14T07:52:54;10.48;;;5.70;;
14052;SDS011;7101;51.600;7.310;2023-12-14T07:55:21;10.23;;;5.93;;
14052;SDS011;7101;51.600;7.310;2023-12-14T07:57:48;9.40;;;5.50;;
14052;SDS011;7101;51.600;7.310;2023-12-14T08:00:15;15.32;;;5.82;;
14052;SDS011;7101;51.600;7.310;2023-12-14T08:02:42;9.02;;;5.38;;
14052;SDS011;7101;51.600;7.310;2023-12-14T08:05:11;10.00;;;5.32;;
14052;SDS011;7101;51.600;7.310;2023-12-14T08:07:40;11.63;;;5.10;;
14052;SDS011;7101;51.600;7.310;2023-12-14T08:10:07;9.68;;;5.85;;
14052;SDS011;7101;51.600;7.310;2023-12-14T08:12:34;10.25;;;5.95;;
14052;SDS011;7101;51.600;7.310;2023-12-14T08:15:00;9.25;;;5.40;;
14052;SDS011;7101;51.600;7.310;2023-12-14T08:17:27;11.88;;;6.35;;
14052;SDS011;7101;51.600;7.310;2023-12-14T08:19:54;9.15;;;5.40;;
14052;SDS011;7101;51.600;7.310;2023-12-14T08:22:21;10.57;;;6.25;;
14052;SDS011;7101;51.600;7.310;2023-12-14T08:24:49;9.93;;;6.32;;
14052;SDS011;7101;51.600;7.310;2023-12-14T08:27:16;10.10;;;5.85;;
14052;SDS011;7101;51.600;7.310;2023-12-14T08:29:43;13.23;;;5.75;;
14052;SDS011;7101;51.600;7.310;2023-12-14T08:32:11;10.65;;;6.68;;
14052;SDS011;7101;51.600;7.310;2023-12-14T08:34:37;9.85;;;6.32;;
14052;SDS011;7101;51.600;7.310;2023-12-14T08:37:04;10.00;;;5.78;;
14052;SDS011;7101;51.600;7.310;2023-12-14T08:39:31;11.70;;;6.18;;
14052;SDS011;7101;51.600;7.310;2023-12-14T08:41:59;12.63;;;6.20;;
14052;SDS011;7101;51.600;7.310;2023-12-14T08:44:26;12.95;;;7.07;;
14052;SDS011;7101;51.600;7.310;2023-12-14T08:46:52;9.18;;;5.38;;
14052;SDS011;7101;51.600;7.310;2023-12-14T08:49:19;10.48;;;6.40;;
14052;SDS011;7101;51.600;7.310;2023-12-14T08:51:47;9.27;;;5.75;;
14052;SDS011;7101;51.600;7.310;2023-12-14T08:54:14;9.65;;;6.22;;
14052;SDS011;7101;51.600;7.310;2023-12-14T08:56:40;13.68;;;6.88;;
14052;SDS011;7101;51.600;7.310;2023-12-14T08:59:08;12.00;;;6.90;;
14052;SDS011;7101;51.600;7.310;2023-12-14T09:01:35;12.90;;;6.72;;
14052;SDS011;7101;51.600;7.310;2023-12-14T09:04:02;13.15;;;7.10;;
14052;SDS011;7101;51.600;7.310;2023-12-14T09:06:28;11.68;;;6.38;;
14052;SDS011;7101;51.600;7.310;2023-12-14T09:08:55;10.38;;;6.30;;
14052;SDS011;7101;51.600;7.310;2023-12-14T09:11:21;10.68;;;6.55;;
14052;SDS011;7101;51.600;7.310;2023-12-14T09:13:48;12.63;;;6.68;;
14052;SDS011;7101;51.600;7.310;2023-12-14T09:16:17;10.63;;;6.60;;
14052;SDS011;7101;51.600;7.310;2023-12-14T09:18:43;12.10;;;6.43;;
14052;SDS011;7101;51.600;7.310;2023-12-14T09:21:10;15.05;;;7.78;;
14052;SDS011;7101;51.600;7.310;2023-12-14T09:23:37;12.00;;;6.78;;
14052;SDS011;7101;51.600;7.310;2023-12-14T09:26:05;12.88;;;7.97;;
14052;SDS011;7101;51.600;7.310;2023-12-14T09:28:32;13.63;;;7.68;;
14052;SDS011;7101;51.600;7.310;2023-12-14T09:30:59;14.35;;;7.78;;
14052;SDS011;7101;51.600;7.310;2023-12-14T09:33:27;16.98;;;8.45;;
14052;SDS011;7101;51.600;7.310;2023-12-14T09:35:55;11.48;;;6.93;;
14052;SDS011;7101;51.600;7.310;2023-12-14T09:38:22;15.43;;;7.95;;
14052;SDS011;7101;51.600;7.310;2023-12-14T09:40:48;15.32;;;8.88;;
14052;SDS011;7101;51.600;7.310;2023-12-14T09:43:15;14.48;;;8.07;;
14052;SDS011;7101;51.600;7.310;2023-12-14T09:45:42;14.65;;;8.57;;
14052;SDS011;7101;51.600;7.310;2023-12-14T09:48:10;17.83;;;8.50;;
14052;SDS011;7101;51.600;7.310;2023-12-14T09:50:40;16.33;;;8.68;;
14052;SDS011;7101;51.600;7.310;2023-12-14T09:53:07;16.63;;;8.23;;
14052;SDS011;7101;51.600;7.310;2023-12-14T09:55:33;15.23;;;8.70;;
14052;SDS011;7101;51.600;7.310;2023-12-14T09:58:00;15.95;;;9.10;;
14052;SDS011;7101;51.600;7.310;2023-12-14T10:00:34;16.67;;;8.75;;
14052;SDS011;7101;51.600;7.310;2023-12-14T10:05:49;17.08;;;8.82;;
14052;SDS011;7101;51.600;7.310;2023-12-14T10:08:17;13.35;;;7.80;;
14052;SDS011;7101;51.600;7.310;2023-12-14T10:10:44;16.55;;;8.63;;
14052;SDS011;7101;51.600;7.310;2023-12-14T10:13:11;16.17;;;8.20;;
14052;SDS011;7101;51.600;7.310;2023-12-14T10:15:41;15.65;;;8.13;;
14052;SDS011;7101;51.600;7.310;2023-12-14T10:18:08;15.13;;;7.50;;
14052;SDS011;7101;51.600;7.310;2023-12-14T10:20:34;13.25;;;7.63;;
14052;SDS011;7101;51.600;7.310;2023-12-14T10:23:04;14.02;;;7.97;;
14052;SDS011;7101;51.600;7.310;2023-12-14T10:25:32;13.25;;;7.32;;
14052;SDS011;7101;51.600;7.310;2023-12-14T10:28:00;14.45;;;7.85;;
14052;SDS011;7101;51.600;7.310;2023-12-14T10:30:27;15.93;;;8.27;;
14052;SDS011;7101;51.600;7.310;2023-12-14T10:32:55;14.18;;;8.07;;
14052;SDS011;7101;51.600;7.310;2023-12-14T10:35:22;18.50;;;8.23;;
14052;SDS011;7101;51.600;7.310;2023-12-14T10:37:49;14.57;;;7.20;;
14052;SDS011;7101;51.600;7.310;2023-12-14T10:40:18;13.82;;;6.93;;
14052;SDS011;7101;51.600;7.310;2023-12-14T10:42:46;14.95;;;7.72;;
14052;SDS011;7101;51.600;7.310;2023-12-14T10:45:15;16.60;;;8.13;;
14052;SDS011;7101;51.600;7.310;2023-12-14T10:47:43;15.60;;;8.13;;
14052;SDS011;7101;51.600;7.310;2023-12-14T10:50:11;13.57;;;7.75;;
14052;SDS011;7101;51.600;7.310;2023-12-14T10:52:38;16.92;;;7.88;;
14052;SDS011;7101;51.600;7.310;2023-12-14T10:55:06;16.75;;;7.93;;
14052;SDS011;7101;51.600;7.310;2023-12-14T10:57:38;16.92;;;8.40;;
14052;SDS011;7101;51.600;7.310;2023-12-14T11:00:05;17.48;;;9.18;;
14052;SDS011;7101;51.600;7.310;2023-12-14T11:02:39;17.73;;;8.65;;
14052;SDS011;7101;51.600;7.310;2023-12-14T11:05:08;15.82;;;8.43;;
14052;SDS011;7101;51.600;7.310;2023-12-14T11:07:43;15.20;;;8.02;;
14052;SDS011;7101;51.600;7.310;2023-12-14T11:10:12;14.00;;;7.53;;
14052;SDS011;7101;51.600;7.310;2023-12-14T11:12:50;15.82;;;7.65;;
14052;SDS011;7101;51.600;7.310;2023-12-14T11:15:21;15.57;;;7.80;;
14052;SDS011;7101;51.600;7.310;2023-12-14T11:20:52;14.93;;;7.90;;
14052;SDS011;7101;51.600;7.310;2023-12-14T11:23:31;15.35;;;8.13;;
14052;SDS011;7101;51.600;7.310;2023-12-14T11:26:00;14.48;;;7.15;;
14052;SDS011;7101;51.600;7.310;2023-12-14T11:28:31;14.50;;;7.95;;
14052;SDS011;7101;51.600;7.310;2023-12-14T11:30:58;16.65;;;8.60;;
14052;SDS011;7101;51.600;7.310;2023-12-14T11:33:27;15.98;;;7.43;;
14052;SDS011;7101;51.600;7.310;2023-12-14T11:35:54;14.10;;;7.72;;
14052;SDS011;7101;51.600;7.310;2023-12-14T11:38:21;14.95;;;8.20;;
14052;SDS011;7101;51.600;7.310;2023-12-14T11:40:48;14.98;;;7.65;;
14052;SDS011;7101;51.600;7.310;2023-12-14T11:43:15;14.30;;;7.95;;
14052;SDS011;7101;51.600;7.310;2023-12-14T11:45:46;16.88;;;7.85;;
14052;SDS011;7101;51.600;7.310;2023-12-14T11:48:13;13.55;;;7.18;;
14052;SDS011;7101;51.600;7.310;2023-12-14T11:50:41;14.95;;;7.82;;
14052;SDS011;7101;51.600;7.310;2023-12-14T11:53:09;14.35;;;7.65;;
14052;SDS011;7101;51.600;7.310;2023-12-14T11:55:37;13.68;;;7.22;;
14052;SDS011;7101;51.600;7.310;2023-12-14T11:58:05;15.00;;;7.68;;
14052;SDS011;7101;51.600;7.310;2023-12-14T12:00:32;16.27;;;7.13;;
14052;SDS011;7101;51.600;7.310;2023-12-14T12:03:12;15.95;;;8.48;;
14052;SDS011;7101;51.600;7.310;2023-12-14T12:05:41;13.38;;;7.10;;
14052;SDS011;7101;51.600;7.310;2023-12-14T12:08:09;12.90;;;7.22;;
14052;SDS011;7101;51.600;7.310;2023-12-14T12:10:37;13.05;;;7.43;;
14052;SDS011;7101;51.600;7.310;2023-12-14T12:13:04;14.13;;;7.72;;
14052;SDS011;7101;51.600;7.310;2023-12-14T12:15:33;13.38;;;7.43;;
14052;SDS011;7101;51.600;7.310;2023-12-14T12:18:02;14.68;;;7.90;;
14052;SDS011;7101;51.600;7.310;2023-12-14T12:20:34;17.17;;;7.57;;
14052;SDS011;7101;51.600;7.310;2023-12-14T12:23:01;11.75;;;7.07;;
14052;SDS011;7101;51.600;7.310;2023-12-14T12:25:29;13.75;;;7.53;;
14052;SDS011;7101;51.600;7.310;2023-12-14T12:27:56;14.52;;;8.10;;
14052;SDS011;7101;51.600;7.310;2023-12-14T12:30:23;16.00;;;8.05;;
14052;SDS011;7101;51.600;7.310;2023-12-14T12:32:50;13.50;;;6.63;;
14052;SDS011;7101;51.600;7.310;2023-12-14T12:35:17;13.90;;;7.72;;
14052;SDS011;7101;51.600;7.310;2023-12-14T12:37:46;11.65;;;6.78;;
14052;SDS011;7101;51.600;7.310;2023-12-14T12:40:18;11.38;;;6.78;;
14052;SDS011;7101;51.600;7.310;2023-12-14T12:42:46;14.57;;;7.60;;
14052;SDS011;7101;51.600;7.310;2023-12-14T12:45:14;14.02;;;7.28;;
14052;SDS011;7101;51.600;7.310;2023-12-14T12:47:41;12.02;;;6.82;;
14052;SDS011;7101;51.600;7.310;2023-12-14T12:50:08;12.10;;;7.25;;
14052;SDS011;7101;51.600;7.310;2023-12-14T12:52:35;13.18;;;7.80;;
14052;SDS011;7101;51.600;7.310;2023-12-14T12:55:04;11.45;;;7.25;;
14052;SDS011;7101;51.600;7.310;2023-12-14T12:57:31;13.95;;;6.95;;
14052;SDS011;7101;51.600;7.310;2023-12-14T12:59:58;12.23;;;7.22;;
14052;SDS011;7101;51.600;7.310;2023-12-14T13:02:25;12.18;;;6.57;;
14052;SDS011;7101;51.600;7.310;2023-12-14T13:04:51;10.65;;;6.15;;
14052;SDS011;7101;51.600;7.310;2023-12-14T13:07:18;14.63;;;7.32;;
14052;SDS011;7101;51.600;7.310;2023-12-14T13:09:45;12.48;;;7.20;;
14052;SDS011;7101;51.600;7.310;2023-12-14T13:12:13;12.23;;;6.57;;
14052;SDS011;7101;51.600;7.310;2023-12-14T13:14:40;12.10;;;6.55;;
14052;SDS011;7101;51.600;7.310;2023-12-14T13:17:07;10.20;;;6.50;;
14052;SDS011;7101;51.600;7.310;2023-12-14T13:19:34;16.35;;;6.57;;
14052;SDS011;7101;51.600;7.310;2023-12-14T13:22:00;12.57;;;7.07;;
14052;SDS011;7101;51.600;7.310;2023-12-14T13:24:28;12.35;;;6.70;;
14052;SDS011;7101;51.600;7.310;2023-12-14T13:26:55;15.05;;;6.43;;
14052;SDS011;7101;51.600;7.310;2023-12-14T13:29:23;12.30;;;6.85;;
14052;SDS011;7101;51.600;7.310;2023-12-14T13:31:50;11.90;;;6.80;;
14052;SDS011;7101;51.600;7.310;2023-12-14T13:34:16;13.10;;;6.95;;
14052;SDS011;7101;51.600;7.310;2023-12-14T13:36:43;17.77;;;7.68;;
14052;SDS011;7101;51.600;7.310;2023-12-14T13:39:10;12.15;;;6.95;;
14052;SDS011;7101;51.600;7.310;2023-12-14T13:41:37;11.95;;;6.50;;
14052;SDS011;7101;51.600;7.310;2023-12-14T13:44:04;11.68;;;7.03;;
14052;SDS011;7101;51.600;7.310;2023-12-14T13:46:32;12.60;;;6.63;;
14052;SDS011;7101;51.600;7.310;2023-12-14T13:48:59;14.05;;;7.38;;
14052;SDS011;7101;51.600;7.310;2023-12-14T13:51:27;12.50;;;6.75;;
14052;SDS011;7101;51.600;7.310;2023-12-14T13:53:54;14.10;;;7.55;;
14052;SDS011;7101;51.600;7.310;2023-12-14T13:56:22;11.43;;;6.72;;
14052;SDS011;7101;51.600;7.310;2023-12-14T13:58:49;14.25;;;7.70;;
14052;SDS011;7101;51.600;7.310;2023-12-14T14:01:18;16.50;;;7.93;;
14052;SDS011;7101;51.600;7.310;2023-12-14T14:03:46;13.18;;;7.53;;
14052;SDS011;7101;51.600;7.310;2023-12-14T14:06:13;14.43;;;7.80;;
14052;SDS011;7101;51.600;7.310;2023-12-14T14:08:40;15.98;;;8.43;;
14052;SDS011;7101;51.600;7.310;2023-12-14T14:11:07;15.23;;;8.15;;
14052;SDS011;7101;51.600;7.310;2023-12-14T14:13:34;17.42;;;8.65;;
14052;SDS011;7101;51.600;7.310;2023-12-14T14:16:01;18.75;;;9.00;;
14052;SDS011;7101;51.600;7.310;2023-12-14T14:18:30;16.92;;;8.88;;
14052;SDS011;7101;51.600;7.310;2023-12-14T14:20:58;14.73;;;8.13;;
14052;SDS011;7101;51.600;7.310;2023-12-14T14:23:26;14.95;;;8.20;;
14052;SDS011;7101;51.600;7.310;2023-12-14T14:25:53;15.38;;;8.52;;
14052;SDS011;7101;51.600;7.310;2023-12-14T14:28:20;14.93;;;8.60;;
14052;SDS011;7101;51.600;7.310;2023-12-14T14:30:47;14.23;;;7.78;;
14052;SDS011;7101;51.600;7.310;2023-12-14T14:33:13;14.65;;;7.65;;
14052;SDS011;7101;51.600;7.310;2023-12-14T14:35:43;16.48;;;8.73;;
14052;SDS011;7101;51.600;7.310;2023-12-14T14:38:14;14.43;;;8.25;;
14052;SDS011;7101;51.600;7.310;2023-12-14T14:40:41;12.82;;;7.45;;
14052;SDS011;7101;51.600;7.310;2023-12-14T14:43:08;15.15;;;8.73;;
14052;SDS011;7101;51.600;7.310;2023-12-14T14:45:35;17.80;;;9.73;;
14052;SDS011;7101;51.600;7.310;2023-12-14T14:48:03;14.88;;;9.02;;
14052;SDS011;7101;51.600;7.310;2023-12-14T14:50:33;16.25;;;9.48;;
14052;SDS011;7101;51.600;7.310;2023-12-14T14:52:59;17.95;;;9.20;;
14052;SDS011;7101;51.600;7.310;2023-12-14T14:55:28;13.70;;;7.78;;
14052;SDS011;7101;51.600;7.310;2023-12-14T14:57:55;14.75;;;8.45;;
14052;SDS011;7101;51.600;7.310;2023-12-14T15:00:22;16.58;;;9.40;;